Time;durP1;ratioP1;P1;durP2;ratioP2;P2;SDS_P1;SDS_P2;PMS_P1;PMS_P2;Temp;Humidity;BMP_temperature;BMP_pressure;BME280_temperature;BME280_humidity;BME280_pressure;Samples;Min_cycle;Max_cycle;Signal;HPM_P1;HPM_P2
2023/03/23 00:01:30;;;;;;;;;;;11.80;99.90;;;;;;5058732;28;19925;-76
2023/03/23 00:03:57;;;;;;;;;;;11.80;99.90;;;;;;5082405;28;20066;-76
2023/03/23 00:06:27;;;;;;;;;;;11.70;99.90;;;;;;5065213;28;19970;-77
2023/03/23 00:08:59;;;;;;;;;;;11.70;99.90;;;;;;5070944;28;20456;-76
2023/03/23 00:11:29;;;;;;;;;;;11.70;99.90;;;;;;5068297;28;20356;-76
2023/03/23 00:13:57;;;;;;;;;;;11.70;99.90;;;;;;5060943;28;19925;-75
2023/03/23 00:16:28;;;;;;;;;;;11.70;99.90;;;;;;5065255;28;19986;-76
2023/03/23 00:18:59;;;;;;;;;;;11.70;99.90;;;;;;5075858;28;19925;-76
2023/03/23 00:21:32;;;;;;;;;;;11.70;99.90;;;;;;5084663;28;19924;-76
2023/03/23 00:24:01;;;;;;;;;;;11.60;99.90;;;;;;5062760;28;19943;-76
2023/03/23 00:26:29;;;;;;;;;;;11.60;99.90;;;;;;5071138;28;19975;-77
2023/03/23 00:28:56;;;;;;;;;;;11.60;99.90;;;;;;5070988;28;19924;-76
2023/03/23 00:31:23;;;;;;;;;;;11.60;99.90;;;;;;5072532;28;19936;-76
2023/03/23 00:33:51;;;;;;;;;;;11.60;99.90;;;;;;5062403;28;20019;-76
2023/03/23 00:36:22;;;;;;;;;;;11.60;99.90;;;;;;5067782;28;20028;-77
2023/03/23 00:38:49;;;;;;;;;;;11.60;99.90;;;;;;5061990;28;19932;-76
2023/03/23 00:41:21;;;;;;;;;;;11.60;99.90;;;;;;5064786;28;20437;-76
2023/03/23 00:43:52;;;;;;;;;;;11.60;99.90;;;;;;5061104;28;19972;-76
2023/03/23 00:46:20;;;;;;;;;;;11.60;99.90;;;;;;5067391;28;19924;-76
2023/03/23 00:48:50;;;;;;;;;;;11.50;99.90;;;;;;5071668;28;20400;-76
2023/03/23 00:51:17;;;;;;;;;;;11.50;99.90;;;;;;5069178;28;19939;-77
2023/03/23 00:53:45;;;;;;;;;;;11.50;99.90;;;;;;5090771;28;19985;-77
2023/03/23 00:56:15;;;;;;;;;;;11.50;99.90;;;;;;5100835;28;19929;-76
2023/03/23 00:58:43;;;;;;;;;;;11.50;99.90;;;;;;5066127;28;19928;-76
2023/03/23 01:01:10;;;;;;;;;;;11.50;99.90;;;;;;5065011;28;20020;-76
2023/03/23 01:03:37;;;;;;;;;;;11.50;99.90;;;;;;5069490;28;19936;-76
2023/03/23 01:06:08;;;;;;;;;;;11.50;99.90;;;;;;5073385;28;20493;-76
2023/03/23 01:08:39;;;;;;;;;;;11.40;99.90;;;;;;5070415;28;19924;-76
2023/03/23 01:11:10;;;;;;;;;;;11.40;99.90;;;;;;5082889;28;19928;-77
2023/03/23 01:13:39;;;;;;;;;;;11.40;99.90;;;;;;5083012;28;20333;-76
2023/03/23 01:16:08;;;;;;;;;;;11.40;99.90;;;;;;5067797;28;19928;-76
2023/03/23 01:18:37;;;;;;;;;;;11.40;99.90;;;;;;5069318;28;19924;-76
2023/03/23 01:21:06;;;;;;;;;;;11.30;99.90;;;;;;5072924;28;19932;-77
2023/03/23 01:23:33;;;;;;;;;;;11.30;99.90;;;;;;5065741;28;20406;-76
2023/03/23 01:26:03;;;;;;;;;;;11.40;99.90;;;;;;5068565;28;19967;-77
2023/03/23 01:28:33;;;;;;;;;;;11.40;99.90;;;;;;5066964;28;19990;-76
2023/03/23 01:31:02;;;;;;;;;;;11.30;99.90;;;;;;5069027;28;20067;-76
2023/03/23 01:33:34;;;;;;;;;;;11.30;99.90;;;;;;5066240;28;20425;-76
2023/03/23 01:36:03;;;;;;;;;;;11.30;99.90;;;;;;5072370;28;19925;-77
2023/03/23 01:38:30;;;;;;;;;;;11.30;99.90;;;;;;5082913;28;20412;-76
2023/03/23 01:40:57;;;;;;;;;;;11.30;99.90;;;;;;5071196;28;20001;-76
2023/03/23 01:43:24;;;;;;;;;;;11.30;99.90;;;;;;5066636;28;19929;-76
2023/03/23 01:45:51;;;;;;;;;;;11.30;99.90;;;;;;5080572;28;19968;-76
2023/03/23 01:48:24;;;;;;;;;;;11.20;99.90;;;;;;5073534;28;19924;-76
2023/03/23 01:50:55;;;;;;;;;;;11.20;99.90;;;;;;5068831;28;20027;-75
2023/03/23 01:53:22;;;;;;;;;;;11.20;99.90;;;;;;5067348;28;19924;-76
2023/03/23 01:55:53;;;;;;;;;;;11.20;99.90;;;;;;5067379;28;20373;-76
2023/03/23 01:58:26;;;;;;;;;;;11.20;99.90;;;;;;5081624;28;20199;-76
2023/03/23 02:00:58;;;;;;;;;;;11.20;99.90;;;;;;5060191;28;19938;-76
2023/03/23 02:03:25;;;;;;;;;;;11.20;99.90;;;;;;5084211;28;19959;-76
2023/03/23 02:05:54;;;;;;;;;;;11.20;99.90;;;;;;5081966;28;20417;-76
2023/03/23 02:08:32;;;;;;;;;;;11.20;99.90;;;;;;5060791;28;20495;-76
2023/03/23 02:11:02;;;;;;;;;;;11.10;99.90;;;;;;5079713;28;19932;-76
2023/03/23 02:13:30;;;;;;;;;;;11.10;99.90;;;;;;5065016;28;20009;-76
2023/03/23 02:16:04;;;;;;;;;;;11.10;99.90;;;;;;5068735;28;20002;-76
2023/03/23 02:18:53;;;;;;;;;;;11.10;99.90;;;;;;5064271;28;20383;-76
2023/03/23 02:21:41;;;;;;;;;;;11.10;99.90;;;;;;5059078;28;20311;-76
2023/03/23 02:24:15;;;;;;;;;;;11.10;99.90;;;;;;5083389;28;19932;-77
2023/03/23 02:26:47;;;;;;;;;;;11.10;99.90;;;;;;5070650;28;20390;-76
2023/03/23 02:29:38;;;;;;;;;;;11.10;99.90;;;;;;5068507;28;20402;-76
2023/03/23 02:32:13;;;;;;;;;;;11.00;99.90;;;;;;5067966;28;19932;-76
2023/03/23 02:34:47;;;;;;;;;;;11.00;99.90;;;;;;5074428;28;20014;-76
2023/03/23 02:37:17;;;;;;;;;;;11.00;99.90;;;;;;5083722;28;20015;-77
2023/03/23 02:39:47;;;;;;;;;;;11.00;99.90;;;;;;5089907;28;19932;-76
2023/03/23 02:42:17;;;;;;;;;;;11.00;99.90;;;;;;5070853;28;19936;-76
2023/03/23 02:44:46;;;;;;;;;;;11.00;99.90;;;;;;5062775;28;20707;-76
2023/03/23 02:47:15;;;;;;;;;;;11.00;99.90;;;;;;5071192;28;20038;-77
2023/03/23 02:49:47;;;;;;;;;;;11.00;99.90;;;;;;5073595;28;19993;-76
2023/03/23 02:52:16;;;;;;;;;;;11.00;99.90;;;;;;5068479;28;20382;-76
2023/03/23 02:54:45;;;;;;;;;;;12.00;99.90;;;;;;5067002;28;20029;-76
2023/03/23 02:57:12;;;;;;;;;;;10.90;99.90;;;;;;5089656;28;19931;-76
2023/03/23 02:59:42;;;;;;;;;;;10.90;99.90;;;;;;5082658;28;19932;-77
2023/03/23 03:02:13;;;;;;;;;;;10.90;99.90;;;;;;5084983;28;19978;-76
2023/03/23 03:04:41;;;;;;;;;;;10.90;99.90;;;;;;5065209;28;19928;-76
2023/03/23 03:07:27;;;;;;;;;;;10.90;99.90;;;;;;5071532;28;19970;-76
2023/03/23 03:09:57;;;;;;;;;;;10.90;99.90;;;;;;5061731;28;19931;-75
2023/03/23 03:12:27;;;;;;;;;;;10.90;99.90;;;;;;5084349;28;19924;-77
2023/03/23 03:15:03;;;;;;;;;;;10.90;99.90;;;;;;5106030;28;19925;-76
2023/03/23 03:17:32;;;;;;;;;;;10.90;99.90;;;;;;5099594;28;20023;-76
2023/03/23 03:20:09;;;;;;;;;;;10.90;99.90;;;;;;5068477;28;19943;-76
2023/03/23 03:22:41;;;;;;;;;;;10.90;99.90;;;;;;5070049;28;20279;-76
2023/03/23 03:25:13;;;;;;;;;;;10.80;99.90;;;;;;5083140;28;20019;-76
2023/03/23 03:27:41;;;;;;;;;;;10.80;99.90;;;;;;5092302;28;20001;-76
2023/03/23 03:30:21;;;;;;;;;;;10.80;99.90;;;;;;5086085;28;19932;-76
2023/03/23 03:32:50;;;;;;;;;;;10.80;99.90;;;;;;5069684;28;19936;-76
2023/03/23 03:35:18;;;;;;;;;;;10.80;99.90;;;;;;5073745;28;19928;-76
2023/03/23 03:37:46;;;;;;;;;;;10.80;99.90;;;;;;5069568;28;20393;-76
2023/03/23 03:40:16;;;;;;;;;;;10.80;99.90;;;;;;5082679;28;19924;-76
2023/03/23 03:42:45;;;;;;;;;;;10.80;99.90;;;;;;5077515;28;19925;-76
2023/03/23 03:45:15;;;;;;;;;;;10.70;99.90;;;;;;5068169;28;19939;-76
2023/03/23 03:47:42;;;;;;;;;;;10.70;99.90;;;;;;5084210;28;21157;-76
2023/03/23 03:50:09;;;;;;;;;;;10.70;99.90;;;;;;5074583;28;20416;-76
2023/03/23 03:52:38;;;;;;;;;;;10.70;99.90;;;;;;5070784;28;19982;-76
2023/03/23 03:55:06;;;;;;;;;;;10.70;99.90;;;;;;5082818;28;21535;-76
2023/03/23 03:57:36;;;;;;;;;;;10.70;99.90;;;;;;5061984;28;19924;-76
2023/03/23 04:00:14;;;;;;;;;;;10.70;99.90;;;;;;5073558;28;19932;-76
2023/03/23 04:02:42;;;;;;;;;;;10.70;99.90;;;;;;5068722;28;20398;-76
2023/03/23 04:05:11;;;;;;;;;;;10.70;99.90;;;;;;5069490;28;19924;-76
2023/03/23 04:07:39;;;;;;;;;;;10.70;99.90;;;;;;5069624;28;19924;-76
2023/03/23 04:10:06;;;;;;;;;;;10.70;99.90;;;;;;5068835;28;19928;-76
2023/03/23 04:12:36;;;;;;;;;;;10.70;99.90;;;;;;5091915;28;20336;-76
2023/03/23 04:15:21;;;;;;;;;;;10.60;99.90;;;;;;5069203;28;20329;-76
2023/03/23 04:17:52;;;;;;;;;;;10.70;99.90;;;;;;5070882;28;20606;-76
2023/03/23 04:20:19;;;;;;;;;;;10.60;99.90;;;;;;5069392;28;20414;-76
2023/03/23 04:22:50;;;;;;;;;;;10.60;99.90;;;;;;5068460;28;19928;-76
2023/03/23 04:25:21;;;;;;;;;;;10.60;99.90;;;;;;5068051;28;19931;-76
2023/03/23 04:27:53;;;;;;;;;;;10.70;99.90;;;;;;5081516;28;19932;-77
2023/03/23 04:30:27;;;;;;;;;;;10.60;99.90;;;;;;5066437;28;19932;-76
2023/03/23 04:33:14;;;;;;;;;;;10.60;99.90;;;;;;5074862;28;19932;-76
2023/03/23 04:35:47;;;;;;;;;;;10.60;99.90;;;;;;5077285;28;19936;-76
2023/03/23 04:38:23;;;;;;;;;;;10.60;99.90;;;;;;5060992;28;20461;-76
2023/03/23 04:40:57;;;;;;;;;;;10.60;99.90;;;;;;5059333;28;20452;-77
2023/03/23 04:43:45;;;;;;;;;;;10.60;99.90;;;;;;5069201;28;19932;-76
2023/03/23 04:46:21;;;;;;;;;;;10.60;99.90;;;;;;5086339;28;19931;-77
2023/03/23 04:48:49;;;;;;;;;;;10.60;99.90;;;;;;5075692;28;20021;-76
2023/03/23 04:51:22;;;;;;;;;;;10.60;99.90;;;;;;5070631;28;19928;-79
2023/03/23 04:53:51;;;;;;;;;;;10.50;99.90;;;;;;5069144;28;19942;-77
2023/03/23 04:56:19;;;;;;;;;;;10.50;99.90;;;;;;5073515;28;19933;-76
2023/03/23 04:58:51;;;;;;;;;;;10.50;99.90;;;;;;5083826;28;19930;-78
2023/03/23 05:01:36;;;;;;;;;;;10.50;99.90;;;;;;5075074;28;19933;-77
2023/03/23 05:04:24;;;;;;;;;;;10.50;99.90;;;;;;5059271;28;19944;-76
2023/03/23 05:07:07;;;;;;;;;;;10.50;99.90;;;;;;5065114;28;19944;-77
2023/03/23 05:09:41;;;;;;;;;;;10.50;99.90;;;;;;5074724;28;20379;-77
2023/03/23 05:12:11;;;;;;;;;;;10.50;99.90;;;;;;5069094;28;20287;-76
2023/03/23 05:14:51;;;;;;;;;;;10.50;99.90;;;;;;5068483;28;19928;-77
2023/03/23 05:17:29;;;;;;;;;;;10.50;99.90;;;;;;5067673;28;19939;-77
2023/03/23 05:19:58;;;;;;;;;;;10.50;99.90;;;;;;5076020;28;19932;-78
2023/03/23 05:22:38;;;;;;;;;;;10.50;99.90;;;;;;5057661;28;19928;-77
2023/03/23 05:25:10;;;;;;;;;;;10.50;99.90;;;;;;5084406;28;19964;-78
2023/03/23 05:27:42;;;;;;;;;;;10.50;99.90;;;;;;5079233;28;19981;-77
2023/03/23 05:30:21;;;;;;;;;;;10.50;99.90;;;;;;5066227;28;19924;-78
2023/03/23 05:32:50;;;;;;;;;;;10.50;99.90;;;;;;5078702;28;19991;-77
2023/03/23 05:35:43;;;;;;;;;;;10.50;99.90;;;;;;5080908;28;19928;-78
2023/03/23 05:38:10;;;;;;;;;;;10.40;99.90;;;;;;5065790;28;19939;-76
2023/03/23 05:40:39;;;;;;;;;;;10.50;99.90;;;;;;5068559;28;19986;-76
2023/03/23 05:43:14;;;;;;;;;;;10.50;99.90;;;;;;5067511;28;20018;-76
2023/03/23 05:45:59;;;;;;;;;;;10.50;99.90;;;;;;5060540;28;20448;-76
2023/03/23 05:48:26;;;;;;;;;;;10.40;99.90;;;;;;5071050;28;19940;-78
2023/03/23 05:50:53;;;;;;;;;;;10.40;99.90;;;;;;5083148;28;19924;-78
2023/03/23 05:53:23;;;;;;;;;;;10.50;99.90;;;;;;5068143;28;20271;-77
2023/03/23 05:55:51;;;;;;;;;;;10.50;99.90;;;;;;5063077;28;20050;-78
2023/03/23 05:58:37;;;;;;;;;;;10.40;99.90;;;;;;5070906;28;19924;-77
2023/03/23 06:01:08;;;;;;;;;;;10.40;99.90;;;;;;5059109;28;19939;-77
2023/03/23 06:03:36;;;;;;;;;;;10.50;99.90;;;;;;5074181;28;19932;-77
2023/03/23 06:06:11;;;;;;;;;;;10.50;99.90;;;;;;5063389;28;20402;-77
2023/03/23 06:08:50;;;;;;;;;;;10.40;99.90;;;;;;5063382;28;19932;-76
2023/03/23 06:11:18;;;;;;;;;;;10.50;99.90;;;;;;5060290;28;19931;-77
2023/03/23 06:13:57;;;;;;;;;;;10.50;99.90;;;;;;5065597;28;19928;-76
2023/03/23 06:16:26;;;;;;;;;;;10.40;99.90;;;;;;5061877;28;19970;-77
2023/03/23 06:18:56;;;;;;;;;;;10.40;99.90;;;;;;5068678;28;19941;-78
2023/03/23 06:21:29;;;;;;;;;;;10.40;99.90;;;;;;5079820;28;20322;-77
2023/03/23 06:24:01;;;;;;;;;;;10.40;99.90;;;;;;5060327;28;19931;-78
2023/03/23 06:26:32;;;;;;;;;;;10.50;99.90;;;;;;5060005;28;19939;-77
2023/03/23 06:29:01;;;;;;;;;;;10.50;99.90;;;;;;5082398;28;19928;-78
2023/03/23 06:31:34;;;;;;;;;;;10.50;99.90;;;;;;5071476;28;20386;-78
2023/03/23 06:34:02;;;;;;;;;;;10.50;99.90;;;;;;5082090;28;19933;-77
2023/03/23 06:36:48;;;;;;;;;;;10.50;99.90;;;;;;5064604;28;19947;-77
2023/03/23 06:39:19;;;;;;;;;;;10.50;99.90;;;;;;5066093;28;19983;-77
2023/03/23 06:42:10;;;;;;;;;;;10.50;99.90;;;;;;5069894;28;19924;-77
2023/03/23 06:44:41;;;;;;;;;;;10.50;99.90;;;;;;5067577;28;19925;-77
2023/03/23 06:47:11;;;;;;;;;;;10.50;99.90;;;;;;5077156;28;19924;-78
2023/03/23 06:49:45;;;;;;;;;;;10.60;99.90;;;;;;5076824;28;19932;-77
2023/03/23 06:52:25;;;;;;;;;;;10.60;99.90;;;;;;5073121;28;19924;-77
2023/03/23 06:54:52;;;;;;;;;;;10.60;99.90;;;;;;5073950;28;19925;-77
2023/03/23 06:57:20;;;;;;;;;;;10.60;99.90;;;;;;5070252;28;19970;-78
2023/03/23 06:59:49;;;;;;;;;;;10.60;99.90;;;;;;5067519;28;20457;-78
2023/03/23 07:02:18;;;;;;;;;;;10.60;99.90;;;;;;5069518;28;19955;-77
2023/03/23 07:04:48;;;;;;;;;;;10.60;99.90;;;;;;5065463;28;20002;-77
2023/03/23 07:07:25;;;;;;;;;;;10.60;99.90;;;;;;5069948;28;19962;-77
2023/03/23 07:10:14;;;;;;;;;;;10.70;99.90;;;;;;5064822;28;19933;-77
2023/03/23 07:12:42;;;;;;;;;;;10.70;99.90;;;;;;5070845;28;19932;-77
2023/03/23 07:15:12;;;;;;;;;;;10.70;99.90;;;;;;5067540;28;19924;-77
2023/03/23 07:17:42;;;;;;;;;;;10.70;99.90;;;;;;5068340;28;19929;-77
2023/03/23 07:20:27;;;;;;;;;;;10.70;99.90;;;;;;5078330;28;19944;-77
2023/03/23 07:22:58;;;;;;;;;;;10.70;99.90;;;;;;5072914;28;19932;-77
2023/03/23 07:25:40;;;;;;;;;;;10.80;99.90;;;;;;5070070;28;19935;-77
2023/03/23 07:28:10;;;;;;;;;;;10.80;99.90;;;;;;5075159;28;19929;-77
2023/03/23 07:30:38;;;;;;;;;;;10.80;99.90;;;;;;5086931;28;20163;-79
2023/03/23 07:33:07;;;;;;;;;;;10.80;99.90;;;;;;5064925;28;19928;-77
2023/03/23 07:35:34;;;;;;;;;;;10.80;99.90;;;;;;5087185;28;19947;-78
2023/03/23 07:38:08;;;;;;;;;;;10.80;99.90;;;;;;5074173;28;19931;-79
2023/03/23 07:40:35;;;;;;;;;;;10.80;99.90;;;;;;5064054;28;19925;-77
2023/03/23 07:43:08;;;;;;;;;;;10.80;99.90;;;;;;5071439;28;20003;-78
2023/03/23 07:45:52;;;;;;;;;;;10.90;99.90;;;;;;5068709;28;20422;-78
2023/03/23 07:48:24;;;;;;;;;;;10.90;99.90;;;;;;5071411;28;19928;-79
2023/03/23 07:50:52;;;;;;;;;;;10.90;99.90;;;;;;5069223;28;20386;-78
2023/03/23 07:53:21;;;;;;;;;;;10.90;99.90;;;;;;5076479;28;19935;-78
2023/03/23 07:55:56;;;;;;;;;;;10.90;99.90;;;;;;5109237;28;19985;-78
2023/03/23 07:58:56;;;;;;;;;;;11.00;99.90;;;;;;5067712;28;20436;-77
2023/03/23 08:01:24;;;;;;;;;;;10.90;99.90;;;;;;5068720;28;19928;-77
2023/03/23 08:04:18;;;;;;;;;;;10.90;99.90;;;;;;5064402;28;19925;-77
2023/03/23 08:07:12;;;;;;;;;;;10.90;99.90;;;;;;5072968;28;19924;-78
2023/03/23 08:10:03;;;;;;;;;;;10.90;99.90;;;;;;5071354;28;19924;-77
2023/03/23 08:12:30;;;;;;;;;;;10.90;99.90;;;;;;5074360;28;19925;-77
2023/03/23 08:15:15;;;;;;;;;;;10.90;99.90;;;;;;5064061;28;19974;-77
2023/03/23 08:17:48;;;;;;;;;;;10.90;99.90;;;;;;5066803;28;20346;-77
2023/03/23 08:20:36;;;;;;;;;;;11.00;99.90;;;;;;5065790;28;20348;-78
2023/03/23 08:23:32;;;;;;;;;;;11.00;99.90;;;;;;5069668;28;19928;-77
2023/03/23 08:26:19;;;;;;;;;;;10.90;99.90;;;;;;5070518;28;19930;-77
2023/03/23 08:28:49;;;;;;;;;;;11.00;99.90;;;;;;5073844;28;19924;-78
2023/03/23 08:31:21;;;;;;;;;;;11.00;99.90;;;;;;5070111;28;19940;-77
2023/03/23 08:34:18;;;;;;;;;;;11.00;99.90;;;;;;5069041;28;19924;-77
2023/03/23 08:36:59;;;;;;;;;;;11.00;99.90;;;;;;5067537;28;19925;-77
2023/03/23 08:39:33;;;;;;;;;;;11.00;99.90;;;;;;5068821;28;19932;-77
2023/03/23 08:42:25;;;;;;;;;;;11.00;99.90;;;;;;5069500;28;19924;-78
2023/03/23 08:45:26;;;;;;;;;;;11.10;99.90;;;;;;5064741;28;20569;-78
2023/03/23 08:48:13;;;;;;;;;;;11.10;99.90;;;;;;5066856;28;19947;-78
2023/03/23 08:50:59;;;;;;;;;;;11.00;99.90;;;;;;5072847;28;20066;-77
2023/03/23 08:53:52;;;;;;;;;;;11.10;99.90;;;;;;5062957;28;19924;-77
2023/03/23 08:56:42;;;;;;;;;;;11.10;99.90;;;;;;5068391;28;19924;-77
2023/03/23 08:59:09;;;;;;;;;;;11.10;99.90;;;;;;5071403;28;20435;-77
2023/03/23 09:02:11;;;;;;;;;;;11.10;99.90;;;;;;5049368;28;19924;-77
2023/03/23 09:04:56;;;;;;;;;;;11.10;99.90;;;;;;5065608;28;19932;-77
2023/03/23 09:07:45;;;;;;;;;;;11.10;99.90;;;;;;5063265;28;19925;-78
2023/03/23 09:10:14;;;;;;;;;;;11.20;99.90;;;;;;5072955;28;19932;-78
2023/03/23 09:12:41;;;;;;;;;;;11.10;99.90;;;;;;5072807;28;19970;-77
2023/03/23 09:15:09;;;;;;;;;;;11.20;99.90;;;;;;5072940;28;20323;-78
2023/03/23 09:17:37;;;;;;;;;;;11.20;99.90;;;;;;5063567;28;19925;-78
2023/03/23 09:20:07;;;;;;;;;;;11.20;99.90;;;;;;5066037;28;19933;-78
2023/03/23 09:22:34;;;;;;;;;;;11.20;99.90;;;;;;5083661;28;19939;-77
2023/03/23 09:25:01;;;;;;;;;;;11.20;99.90;;;;;;5067689;28;19924;-78
2023/03/23 09:27:29;;;;;;;;;;;11.20;99.90;;;;;;5067310;28;20029;-77
2023/03/23 09:29:56;;;;;;;;;;;11.20;99.90;;;;;;5069597;28;20158;-77
2023/03/23 09:32:23;;;;;;;;;;;11.30;99.90;;;;;;5069361;28;19935;-79
2023/03/23 09:34:51;;;;;;;;;;;11.30;99.90;;;;;;5069791;28;20439;-77
2023/03/23 09:37:18;;;;;;;;;;;11.30;99.90;;;;;;5071401;28;20341;-78
2023/03/23 09:39:45;;;;;;;;;;;11.40;99.90;;;;;;5070524;28;19924;-79
2023/03/23 09:42:21;;;;;;;;;;;11.40;99.90;;;;;;5070821;28;20467;-77
2023/03/23 09:44:58;;;;;;;;;;;11.50;99.90;;;;;;5067467;28;19924;-77
2023/03/23 09:47:29;;;;;;;;;;;11.50;99.90;;;;;;5072053;28;19928;-78
2023/03/23 09:49:58;;;;;;;;;;;11.60;99.90;;;;;;5087541;28;19932;-78
2023/03/23 09:52:31;;;;;;;;;;;11.60;99.90;;;;;;5069532;28;19924;-78
2023/03/23 09:54:58;;;;;;;;;;;11.60;99.90;;;;;;5077093;28;19956;-77
2023/03/23 09:57:28;;;;;;;;;;;11.70;99.90;;;;;;5067675;28;20378;-77
2023/03/23 09:59:58;;;;;;;;;;;11.70;99.90;;;;;;5072223;28;19925;-77
2023/03/23 10:02:28;;;;;;;;;;;11.70;99.90;;;;;;5071753;28;19924;-79
2023/03/23 10:04:56;;;;;;;;;;;11.70;99.90;;;;;;5075012;28;20472;-77
2023/03/23 10:07:25;;;;;;;;;;;11.70;99.90;;;;;;5074968;28;20519;-78
2023/03/23 10:09:53;;;;;;;;;;;11.70;99.90;;;;;;5077175;28;19935;-78
2023/03/23 10:12:28;;;;;;;;;;;11.70;99.90;;;;;;5068090;28;20195;-78
2023/03/23 10:15:05;;;;;;;;;;;11.70;99.90;;;;;;5084436;28;20305;-78
2023/03/23 10:17:34;;;;;;;;;;;11.80;99.90;;;;;;5108293;28;20003;-80
2023/03/23 10:20:07;;;;;;;;;;;11.80;99.90;;;;;;5074212;28;19925;-77
2023/03/23 10:22:37;;;;;;;;;;;11.80;99.90;;;;;;5062980;28;19924;-78
2023/03/23 10:25:11;;;;;;;;;;;11.80;99.90;;;;;;5067061;28;20293;-78
2023/03/23 10:27:44;;;;;;;;;;;11.90;99.90;;;;;;5070502;28;19966;-77
2023/03/23 10:30:18;;;;;;;;;;;11.90;99.90;;;;;;5077607;28;19931;-79
2023/03/23 10:32:49;;;;;;;;;;;11.90;99.90;;;;;;5068466;28;19925;-78
2023/03/23 10:35:18;;;;;;;;;;;11.90;99.90;;;;;;5084906;28;19947;-78
2023/03/23 10:37:48;;;;;;;;;;;12.00;99.90;;;;;;5072455;28;19985;-78
2023/03/23 10:40:17;;;;;;;;;;;12.00;99.90;;;;;;5061186;28;19924;-78
2023/03/23 10:42:44;;;;;;;;;;;12.00;99.90;;;;;;5069601;28;19970;-80
2023/03/23 10:45:15;;;;;;;;;;;12.10;99.90;;;;;;5073446;28;20398;-79
2023/03/23 10:47:45;;;;;;;;;;;12.10;99.90;;;;;;5064184;28;19932;-79
2023/03/23 10:50:15;;;;;;;;;;;12.10;99.90;;;;;;5064653;28;20003;-78
2023/03/23 10:52:42;;;;;;;;;;;12.20;99.90;;;;;;5065021;28;19970;-78
2023/03/23 10:55:10;;;;;;;;;;;12.20;99.90;;;;;;5085312;28;19950;-78
2023/03/23 10:57:37;;;;;;;;;;;12.30;99.90;;;;;;5072028;28;20011;-77
2023/03/23 11:00:07;;;;;;;;;;;12.30;99.90;;;;;;5070282;28;19928;-78
2023/03/23 11:02:37;;;;;;;;;;;12.30;99.90;;;;;;5071324;28;19932;-78
2023/03/23 11:05:07;;;;;;;;;;;12.40;99.90;;;;;;5073929;28;19925;-77
2023/03/23 11:07:36;;;;;;;;;;;12.40;99.90;;;;;;5074044;28;20025;-78
2023/03/23 11:10:09;;;;;;;;;;;12.50;99.90;;;;;;5072271;28;21444;-78
2023/03/23 11:12:37;;;;;;;;;;;12.60;99.90;;;;;;5073258;28;19925;-79
2023/03/23 11:15:05;;;;;;;;;;;12.60;99.90;;;;;;5072985;28;20473;-78
2023/03/23 11:17:32;;;;;;;;;;;12.60;99.90;;;;;;5071446;28;20015;-78
2023/03/23 11:19:59;;;;;;;;;;;12.70;99.90;;;;;;5073904;28;20641;-77
2023/03/23 11:22:28;;;;;;;;;;;12.70;99.90;;;;;;5077241;28;19924;-78
2023/03/23 11:24:56;;;;;;;;;;;12.80;99.90;;;;;;5067302;28;20390;-78
2023/03/23 11:27:24;;;;;;;;;;;12.80;99.90;;;;;;5072985;28;19956;-78
2023/03/23 11:29:53;;;;;;;;;;;12.90;99.90;;;;;;5071041;28;20352;-81
2023/03/23 11:32:21;;;;;;;;;;;12.90;99.90;;;;;;5066957;28;19939;-78
2023/03/23 11:34:48;;;;;;;;;;;13.00;99.90;;;;;;5067880;28;19924;-79
2023/03/23 11:37:17;;;;;;;;;;;12.90;99.90;;;;;;5090840;28;19928;-79
2023/03/23 11:39:54;;;;;;;;;;;13.00;99.90;;;;;;5087946;28;19924;-78
2023/03/23 11:42:22;;;;;;;;;;;13.00;99.90;;;;;;5086622;28;19925;-78
2023/03/23 11:44:49;;;;;;;;;;;13.00;99.90;;;;;;5068447;28;19931;-77
2023/03/23 11:47:20;;;;;;;;;;;13.10;99.90;;;;;;5077205;28;20002;-77
2023/03/23 11:49:58;;;;;;;;;;;13.00;99.90;;;;;;5073173;28;19924;-78
2023/03/23 11:52:27;;;;;;;;;;;13.10;99.90;;;;;;5072111;28;19928;-78
2023/03/23 11:54:58;;;;;;;;;;;13.10;99.90;;;;;;5071832;28;19925;-78
2023/03/23 11:57:25;;;;;;;;;;;13.20;99.90;;;;;;5066563;28;19978;-78
2023/03/23 11:59:52;;;;;;;;;;;13.20;99.90;;;;;;5077727;28;19932;-78
2023/03/23 12:02:30;;;;;;;;;;;13.20;99.90;;;;;;5065136;28;19925;-78
2023/03/23 12:04:58;;;;;;;;;;;13.20;99.90;;;;;;5071238;28;19924;-80
2023/03/23 12:07:43;;;;;;;;;;;13.20;99.90;;;;;;5067755;28;19929;-77
2023/03/23 12:10:22;;;;;;;;;;;13.30;99.90;;;;;;5055714;28;19931;-78
2023/03/23 12:12:52;;;;;;;;;;;13.40;99.90;;;;;;5064369;28;19925;-77
2023/03/23 12:15:22;;;;;;;;;;;13.30;99.90;;;;;;5070159;28;19924;-79
2023/03/23 12:17:56;;;;;;;;;;;13.40;99.90;;;;;;5067138;28;20116;-77
2023/03/23 12:20:28;;;;;;;;;;;13.40;99.90;;;;;;5067051;28;19928;-77
2023/03/23 12:23:00;;;;;;;;;;;13.40;99.90;;;;;;5059977;28;20030;-78
2023/03/23 12:25:57;;;;;;;;;;;13.40;99.90;;;;;;5060278;28;19925;-78
2023/03/23 12:28:33;;;;;;;;;;;13.50;99.90;;;;;;4983334;28;19929;-78
2023/03/23 12:31:04;;;;;;;;;;;13.60;99.90;;;;;;5052802;28;20049;-78
2023/03/23 12:33:45;;;;;;;;;;;13.60;99.90;;;;;;5079106;28;19924;-78
2023/03/23 12:36:15;;;;;;;;;;;13.60;99.90;;;;;;5082298;28;20015;-80
2023/03/23 12:38:52;;;;;;;;;;;13.60;99.90;;;;;;5092277;28;20569;-78
2023/03/23 12:41:22;;;;;;;;;;;13.70;99.90;;;;;;5066991;28;19924;-77
2023/03/23 12:43:53;;;;;;;;;;;13.70;99.90;;;;;;5067295;28;19955;-76
2023/03/23 12:46:29;;;;;;;;;;;13.70;99.90;;;;;;5070982;28;19943;-78
2023/03/23 12:48:59;;;;;;;;;;;13.80;99.90;;;;;;5060179;28;19924;-78
2023/03/23 12:51:31;;;;;;;;;;;13.80;99.90;;;;;;5087546;28;19936;-78
2023/03/23 12:53:59;;;;;;;;;;;13.80;99.90;;;;;;5068852;28;19970;-79
2023/03/23 12:56:30;;;;;;;;;;;13.80;99.90;;;;;;5069172;28;20019;-77
2023/03/23 12:59:04;;;;;;;;;;;13.80;99.90;;;;;;5060643;28;19924;-77
2023/03/23 13:01:36;;;;;;;;;;;13.90;99.90;;;;;;5081487;28;19925;-77
2023/03/23 13:04:06;;;;;;;;;;;13.90;99.90;;;;;;5072118;28;19933;-77
2023/03/23 13:06:35;;;;;;;;;;;13.90;99.90;;;;;;5067262;28;19928;-77
2023/03/23 13:09:09;;;;;;;;;;;14.00;99.90;;;;;;5068823;28;20506;-77
2023/03/23 13:11:37;;;;;;;;;;;14.00;99.90;;;;;;5082674;28;20313;-77
2023/03/23 13:14:13;;;;;;;;;;;14.00;99.90;;;;;;5065775;28;19963;-77
2023/03/23 13:16:42;;;;;;;;;;;14.00;99.90;;;;;;5074779;28;20010;-78
2023/03/23 13:19:12;;;;;;;;;;;14.00;99.90;;;;;;5066797;28;19925;-78
2023/03/23 13:21:42;;;;;;;;;;;14.10;99.90;;;;;;5064225;28;20287;-79
2023/03/23 13:24:14;;;;;;;;;;;14.10;99.90;;;;;;5071001;28;19924;-77
2023/03/23 13:26:42;;;;;;;;;;;14.10;99.90;;;;;;5071177;28;19928;-78
2023/03/23 13:29:13;;;;;;;;;;;14.20;99.90;;;;;;5063504;28;19963;-78
2023/03/23 13:31:43;;;;;;;;;;;14.20;99.90;;;;;;5071679;28;19924;-77
2023/03/23 13:34:16;;;;;;;;;;;14.10;99.90;;;;;;5079726;28;19924;-77
2023/03/23 13:36:44;;;;;;;;;;;14.10;99.90;;;;;;5067936;28;19997;-79
2023/03/23 13:39:21;;;;;;;;;;;14.10;99.90;;;;;;5065735;28;19925;-76
2023/03/23 13:41:48;;;;;;;;;;;14.10;99.90;;;;;;5068282;28;19924;-77
2023/03/23 13:44:24;;;;;;;;;;;14.10;99.90;;;;;;5067372;28;20019;-78
2023/03/23 13:46:54;;;;;;;;;;;14.20;99.90;;;;;;5066741;28;20118;-77
2023/03/23 13:49:25;;;;;;;;;;;14.20;99.90;;;;;;5083574;28;19924;-77
2023/03/23 13:52:01;;;;;;;;;;;14.20;99.90;;;;;;5085376;28;19924;-77
2023/03/23 13:54:32;;;;;;;;;;;14.20;99.90;;;;;;5070645;28;19931;-77
2023/03/23 13:57:00;;;;;;;;;;;14.20;99.90;;;;;;5068710;28;19924;-77
2023/03/23 13:59:47;;;;;;;;;;;14.20;99.90;;;;;;5070055;28;20003;-77
2023/03/23 14:02:31;;;;;;;;;;;14.20;99.90;;;;;;5058743;28;19929;-79
2023/03/23 14:04:58;;;;;;;;;;;14.20;99.90;;;;;;5068815;28;19932;-79
2023/03/23 14:07:25;;;;;;;;;;;14.20;99.90;;;;;;5074902;28;19954;-79
2023/03/23 14:09:52;;;;;;;;;;;14.30;99.90;;;;;;5074768;28;19977;-81
2023/03/23 14:12:20;;;;;;;;;;;14.30;99.90;;;;;;5078141;28;19930;-81
2023/03/23 14:14:51;;;;;;;;;;;14.30;99.90;;;;;;5073540;28;19924;-80
2023/03/23 14:17:20;;;;;;;;;;;14.30;99.90;;;;;;5068206;28;19924;-79
2023/03/23 14:19:48;;;;;;;;;;;14.30;99.90;;;;;;5063341;28;19928;-78
2023/03/23 14:22:23;;;;;;;;;;;14.30;99.90;;;;;;5068497;28;20475;-80
2023/03/23 14:24:51;;;;;;;;;;;14.30;99.90;;;;;;5071782;28;19924;-80
2023/03/23 14:27:21;;;;;;;;;;;14.30;99.90;;;;;;5070932;28;20394;-78
2023/03/23 14:29:59;;;;;;;;;;;14.30;99.90;;;;;;5064936;28;19928;-78
2023/03/23 14:32:29;;;;;;;;;;;14.30;99.90;;;;;;5066897;28;19966;-78
2023/03/23 14:34:56;;;;;;;;;;;14.30;99.90;;;;;;5067163;28;19970;-77
2023/03/23 14:37:23;;;;;;;;;;;14.40;99.90;;;;;;5069698;28;19932;-79
2023/03/23 14:39:51;;;;;;;;;;;14.40;99.90;;;;;;5070931;28;19930;-77
2023/03/23 14:42:21;;;;;;;;;;;14.40;99.90;;;;;;5085655;28;19928;-77
2023/03/23 14:44:50;;;;;;;;;;;14.40;99.90;;;;;;5084401;28;19947;-78
2023/03/23 14:47:23;;;;;;;;;;;14.40;99.90;;;;;;5067722;28;19933;-77